Portada
METAR-TAF:

METAR-TAF

Aeroports :

Tena, Equador

latitud: 01-03-35S, longitud: 77-35-00W, altitud: 376 m

Observació

L'informe es va fer fa 5 hores i 40 minuts, a les 23:00 UTC
Vent 3 kt del Nord-Oest
Temperatura 24°C
Humitat 94%
Pressió 1012 hPa
Visibilitat 10 km o més
Escasses núvols a una alçada de 1300 ft
Cel ennuvolat a una alçada de 10000 ft

METAR: SEJD 232300Z 31003KT 9999 FEW013 BKN100 24/23 Q1012 RMK A2989

Hora: 23:40 (04:40 UTC)


TAF: manca

Observacions i pronòstics meteorològics de més de 4000 aeroports (METAR i TAF).

Les estacions disponibles són els punts grocs i vermells al mapa.

Posi el ratolí al punt desitjat per veure el nom de l'estació.

Feu clic per veure les observacions i els pronòstics meteorològics.

Per canviar el mapa: feu clic els botons verds amb una creu de color negre per apropar; al botó verd amb un guió per allunyar la imatge; o en les fletxes verdes per a mapes adjacents.


METAR-TAF: